createdAt,value
2017-11-26T00:00:37.596Z,80.40
2017-11-26T00:01:44.084Z,80.47
2017-11-26T00:02:49.830Z,80.31
2017-11-26T00:03:55.555Z,80.48
2017-11-26T00:05:01.267Z,80.54
2017-11-26T00:06:07.767Z,80.69
2017-11-26T00:07:13.474Z,80.76
2017-11-26T00:08:19.226Z,80.77
2017-11-26T00:09:24.945Z,80.90
2017-11-26T00:10:31.432Z,80.91
2017-11-26T00:11:37.146Z,80.88
2017-11-26T00:12:43.427Z,80.97
2017-11-26T00:13:49.180Z,81.11
2017-11-26T00:14:54.895Z,81.15
2017-11-26T00:16:01.380Z,81.22
2017-11-26T00:17:07.114Z,81.24
2017-11-26T00:18:12.638Z,81.18
2017-11-26T00:19:18.370Z,81.07
2017-11-26T00:20:23.898Z,81.03
2017-11-26T00:21:30.385Z,80.99
2017-11-26T00:22:35.907Z,81.01
2017-11-26T00:23:41.631Z,81.04
2017-11-26T00:24:48.129Z,81.09
2017-11-26T00:25:53.841Z,81.16
2017-11-26T00:26:59.561Z,81.19
2017-11-26T00:28:05.270Z,81.20
2017-11-26T00:29:10.981Z,81.21
2017-11-26T00:30:16.738Z,81.20
2017-11-26T00:31:22.465Z,81.12
2017-11-26T00:32:28.004Z,81.23
2017-11-26T00:33:33.709Z,81.35
2017-11-26T00:34:40.058Z,81.42
2017-11-26T00:35:45.608Z,81.39
2017-11-26T00:36:52.083Z,81.45
2017-11-26T00:37:57.615Z,81.40
2017-11-26T00:39:03.332Z,81.30
2017-11-26T00:40:09.815Z,81.41
2017-11-26T00:41:15.565Z,81.32
2017-11-26T00:42:21.274Z,81.20
2017-11-26T00:43:27.070Z,81.13
2017-11-26T00:44:32.783Z,81.21
2017-11-26T00:45:38.500Z,81.22
2017-11-26T00:46:44.810Z,81.31
2017-11-26T00:47:50.538Z,81.33
2017-11-26T00:48:56.253Z,81.25
2017-11-26T00:50:01.979Z,81.14
2017-11-26T00:51:08.464Z,81.19
2017-11-26T00:52:14.267Z,81.35
2017-11-26T00:53:20.753Z,81.30
2017-11-26T00:54:26.468Z,81.32
2017-11-26T00:55:32.959Z,81.38
2017-11-26T00:56:38.663Z,81.28
2017-11-26T00:57:44.410Z,81.38
2017-11-26T00:58:50.917Z,81.49
2017-11-26T00:59:56.653Z,81.59
2017-11-26T01:01:02.363Z,81.53
2017-11-26T01:02:08.084Z,81.44
2017-11-26T01:03:13.814Z,81.48
2017-11-26T01:04:19.535Z,81.49
2017-11-26T01:05:25.238Z,81.56
2017-11-26T01:06:30.946Z,81.54
2017-11-26T01:07:36.654Z,81.57
2017-11-26T01:08:42.394Z,81.58
2017-11-26T01:09:47.903Z,81.53
2017-11-26T01:10:53.626Z,81.48
2017-11-26T01:12:00.106Z,81.46
2017-11-26T01:13:05.820Z,81.56
2017-11-26T01:14:12.324Z,81.63
2017-11-26T01:15:18.039Z,81.67
2017-11-26T01:16:23.768Z,81.64
2017-11-26T01:17:29.474Z,81.62
2017-11-26T01:18:35.389Z,81.67
2017-11-26T01:19:41.138Z,81.66
2017-11-26T01:20:46.850Z,81.62
2017-11-26T01:21:52.553Z,81.51
2017-11-26T01:22:59.041Z,81.45
2017-11-26T01:24:04.758Z,81.43
2017-11-26T01:25:11.266Z,81.36
2017-11-26T01:26:16.990Z,81.38
2017-11-26T01:27:22.720Z,81.36
2017-11-26T01:28:28.435Z,81.35
2017-11-26T01:29:34.933Z,81.34
2017-11-26T01:30:40.704Z,81.36
2017-11-26T01:31:46.437Z,81.43
2017-11-26T01:32:52.157Z,81.53
2017-11-26T01:33:57.870Z,81.58
2017-11-26T01:35:03.595Z,81.60
2017-11-26T01:36:10.118Z,81.63
2017-11-26T01:37:15.838Z,81.61
2017-11-26T01:38:21.549Z,81.55
2017-11-26T01:39:28.027Z,81.63
2017-11-26T01:40:33.745Z,81.69
2017-11-26T01:41:40.258Z,81.74
2017-11-26T01:42:45.990Z,81.70
2017-11-26T01:43:51.715Z,81.65
2017-11-26T01:44:57.432Z,81.73
2017-11-26T01:46:03.160Z,81.75
2017-11-26T01:47:09.669Z,81.77
2017-11-26T01:48:15.395Z,81.72
2017-11-26T01:49:21.116Z,81.72
2017-11-26T01:50:26.834Z,81.76
2017-11-26T01:51:33.136Z,81.70
2017-11-26T01:52:39.603Z,81.60
2017-11-26T01:53:45.322Z,81.55
2017-11-26T01:54:50.865Z,81.53
2017-11-26T01:55:56.407Z,81.49
2017-11-26T01:57:02.128Z,81.46
2017-11-26T01:58:07.699Z,81.52
2017-11-26T01:59:13.425Z,81.45
2017-11-26T02:00:18.484Z,81.42
2017-11-26T02:01:23.558Z,81.57
2017-11-26T02:02:29.025Z,81.60
2017-11-26T02:03:34.013Z,81.61
2017-11-26T02:04:39.404Z,81.62
2017-11-26T02:05:44.934Z,81.69
2017-11-26T02:06:50.674Z,81.73
2017-11-26T02:07:56.395Z,81.70
2017-11-26T02:09:01.955Z,81.73
2017-11-26T02:10:07.492Z,81.70
2017-11-26T02:11:13.026Z,81.68
2017-11-26T02:12:18.757Z,81.56
2017-11-26T02:13:24.489Z,81.54
2017-11-26T02:14:30.236Z,81.43
2017-11-26T02:15:35.961Z,81.36
2017-11-26T02:16:41.707Z,81.34
2017-11-26T02:17:47.527Z,81.31
2017-11-26T02:18:53.258Z,81.21
2017-11-26T02:19:58.395Z,81.22
2017-11-26T02:21:03.466Z,81.24
2017-11-26T02:22:08.857Z,81.22
2017-11-26T02:23:14.233Z,81.09
2017-11-26T02:24:19.301Z,81.05
2017-11-26T02:25:25.065Z,81.08
2017-11-26T02:26:30.448Z,81.03
2017-11-26T02:27:35.902Z,80.99
2017-11-26T02:28:41.736Z,80.96
2017-11-26T02:29:47.569Z,81.04
2017-11-26T02:30:53.557Z,81.11
2017-11-26T02:32:16.281Z,81.07
2017-11-26T02:33:38.932Z,80.96
2017-11-26T02:35:01.391Z,80.87
2017-11-26T02:36:23.441Z,80.83
2017-11-26T02:37:29.279Z,80.79
2017-11-26T02:38:35.003Z,80.86
2017-11-26T02:39:40.070Z,81.03
2017-11-26T02:40:46.425Z,81.11
2017-11-26T02:41:52.279Z,81.07
2017-11-26T02:42:57.371Z,81.17
2017-11-26T02:44:02.418Z,81.32
2017-11-26T02:45:08.906Z,81.36
2017-11-26T02:46:14.631Z,81.35
2017-11-26T02:47:19.518Z,81.50
2017-11-26T02:48:25.257Z,81.57
2017-11-26T02:49:30.323Z,81.63
2017-11-26T02:50:36.455Z,81.65
2017-11-26T02:51:42.271Z,81.66
2017-11-26T02:52:47.428Z,81.66
2017-11-26T02:53:52.824Z,81.72
2017-11-26T02:54:57.876Z,81.77
2017-11-26T02:56:03.566Z,81.80
2017-11-26T02:57:09.287Z,81.88
2017-11-26T02:58:15.052Z,81.89
2017-11-26T02:59:20.110Z,81.85
2017-11-26T03:00:26.253Z,81.83
2017-11-26T03:01:31.647Z,81.84
2017-11-26T03:02:37.350Z,81.87
2017-11-26T03:03:43.916Z,82.03
2017-11-26T03:04:50.398Z,82.00
2017-11-26T03:05:56.128Z,82.02
2017-11-26T03:07:02.616Z,82.04
2017-11-26T03:08:08.378Z,82.07
2017-11-26T03:09:14.123Z,82.17
2017-11-26T03:10:19.639Z,82.21
2017-11-26T03:11:25.362Z,82.25
2017-11-26T03:12:31.082Z,82.18
2017-11-26T03:13:37.570Z,82.12
2017-11-26T03:14:43.314Z,82.16
2017-11-26T03:15:49.038Z,82.13
2017-11-26T03:16:54.763Z,82.15
2017-11-26T03:18:01.241Z,82.18
2017-11-26T03:19:06.955Z,82.21
2017-11-26T03:20:13.475Z,82.23
2017-11-26T03:21:19.220Z,82.20
2017-11-26T03:22:24.634Z,82.06
2017-11-26T03:23:30.354Z,82.11
2017-11-26T03:24:36.072Z,82.13
2017-11-26T03:25:42.585Z,82.17
2017-11-26T03:26:48.129Z,82.25
2017-11-26T03:27:53.651Z,82.29
2017-11-26T03:28:59.196Z,82.26
2017-11-26T03:30:04.417Z,82.22
2017-11-26T03:31:10.166Z,82.22
2017-11-26T03:32:15.910Z,82.28
2017-11-26T03:33:21.435Z,82.21
2017-11-26T03:34:27.169Z,82.28
2017-11-26T03:35:32.703Z,82.40
2017-11-26T03:36:38.438Z,82.45
2017-11-26T03:37:44.152Z,82.52
2017-11-26T03:38:49.683Z,82.66
2017-11-26T03:39:55.987Z,82.72
2017-11-26T03:41:01.707Z,82.84
2017-11-26T03:42:07.458Z,82.93
2017-11-26T03:43:13.187Z,83.03
2017-11-26T03:44:18.893Z,83.02
2017-11-26T03:45:25.378Z,83.09
2017-11-26T03:46:31.089Z,83.11
2017-11-26T03:47:37.604Z,83.06
2017-11-26T03:48:43.322Z,82.99
2017-11-26T03:49:49.038Z,82.89
2017-11-26T03:50:55.528Z,82.73
2017-11-26T03:52:01.271Z,82.75
2017-11-26T03:53:06.711Z,82.67
2017-11-26T03:54:12.307Z,82.78
2017-11-26T03:55:18.181Z,82.59
2017-11-26T03:56:24.324Z,82.52
2017-11-26T03:57:29.871Z,82.60
2017-11-26T03:58:35.421Z,82.57
2017-11-26T03:59:41.140Z,82.56
2017-11-26T04:00:46.855Z,82.58
2017-11-26T04:01:53.329Z,82.50
2017-11-26T04:02:59.045Z,82.45
2017-11-26T04:04:05.559Z,82.48
2017-11-26T04:05:11.286Z,82.41
2017-11-26T04:06:17.055Z,82.37
2017-11-26T04:07:22.593Z,82.40
2017-11-26T04:08:28.503Z,82.39
2017-11-26T04:09:34.267Z,82.39
2017-11-26T04:10:39.999Z,82.34
2017-11-26T04:11:45.718Z,82.46
2017-11-26T04:12:51.450Z,82.56
2017-11-26T04:13:57.185Z,82.57
2017-11-26T04:15:03.691Z,82.59
2017-11-26T04:16:08.754Z,82.59
2017-11-26T04:17:13.817Z,82.62
2017-11-26T04:18:18.882Z,82.62
2017-11-26T04:19:24.276Z,82.65
2017-11-26T04:20:30.014Z,82.70
2017-11-26T04:21:35.730Z,82.62
2017-11-26T04:22:42.220Z,82.62
2017-11-26T04:23:47.935Z,82.61
2017-11-26T04:24:54.418Z,82.65
2017-11-26T04:25:59.506Z,82.69
2017-11-26T04:27:05.658Z,82.58
2017-11-26T04:28:11.374Z,82.57
2017-11-26T04:29:17.095Z,82.60
2017-11-26T04:30:22.812Z,82.55
2017-11-26T04:31:28.560Z,82.51
2017-11-26T04:32:34.284Z,82.57
2017-11-26T04:33:40.000Z,82.59
2017-11-26T04:34:46.478Z,82.71
2017-11-26T04:35:51.857Z,82.73
2017-11-26T04:36:57.597Z,82.64
2017-11-26T04:38:03.321Z,82.60
2017-11-26T04:39:09.035Z,82.56
2017-11-26T04:40:14.765Z,82.49
2017-11-26T04:41:21.241Z,82.46
2017-11-26T04:42:27.009Z,82.47
2017-11-26T04:43:32.733Z,82.45
2017-11-26T04:44:38.436Z,82.41
2017-11-26T04:45:45.126Z,82.41
2017-11-26T04:46:50.833Z,82.37
2017-11-26T04:47:56.574Z,82.36
2017-11-26T04:49:03.068Z,82.34
2017-11-26T04:50:08.801Z,82.35
2017-11-26T04:51:15.290Z,82.37
2017-11-26T04:52:20.806Z,82.31
2017-11-26T04:53:26.363Z,82.34
2017-11-26T04:54:32.084Z,82.37
2017-11-26T04:55:37.827Z,82.33
2017-11-26T04:56:43.556Z,82.28
2017-11-26T04:57:49.266Z,82.31
2017-11-26T04:58:55.593Z,82.26
2017-11-26T05:00:01.318Z,82.24
2017-11-26T05:01:06.455Z,82.14
2017-11-26T05:02:11.087Z,82.15
2017-11-26T05:03:16.147Z,82.17
2017-11-26T05:04:21.998Z,82.14
2017-11-26T05:05:27.050Z,82.18
2017-11-26T05:06:32.780Z,82.23
2017-11-26T05:07:38.499Z,82.22
2017-11-26T05:08:44.989Z,82.34
2017-11-26T05:09:50.737Z,82.39
2017-11-26T05:10:56.465Z,82.41
2017-11-26T05:12:02.197Z,82.43
2017-11-26T05:13:07.919Z,82.41
2017-11-26T05:14:14.439Z,82.40
2017-11-26T05:15:25.890Z,82.32
2017-11-26T05:16:31.612Z,82.29
2017-11-26T05:17:37.332Z,82.28
2017-11-26T05:18:43.823Z,82.22
2017-11-26T05:19:49.539Z,82.18
2017-11-26T05:20:56.045Z,82.14
2017-11-26T05:22:01.855Z,82.20
2017-11-26T05:23:07.562Z,82.19
2017-11-26T05:24:14.064Z,82.20
2017-11-26T05:25:19.806Z,82.18
2017-11-26T05:26:25.551Z,82.15
2017-11-26T05:27:31.266Z,82.12
2017-11-26T05:28:37.755Z,82.04
2017-11-26T05:29:43.491Z,81.99
2017-11-26T05:30:49.205Z,82.01
2017-11-26T05:31:54.950Z,82.04
2017-11-26T05:33:00.663Z,81.96
2017-11-26T05:34:07.149Z,81.88
2017-11-26T05:35:12.678Z,81.83
2017-11-26T05:36:18.400Z,81.79
2017-11-26T05:37:23.959Z,81.81
2017-11-26T05:38:29.679Z,81.87
2017-11-26T05:39:36.171Z,81.92
2017-11-26T05:40:41.891Z,81.94
2017-11-26T05:41:48.682Z,81.93
2017-11-26T05:42:54.221Z,81.88
2017-11-26T05:43:59.942Z,81.81
2017-11-26T05:45:06.238Z,81.83
2017-11-26T05:46:11.752Z,81.94
2017-11-26T05:47:17.466Z,82.01
2017-11-26T05:48:23.793Z,81.96
2017-11-26T05:49:29.517Z,82.00
2017-11-26T05:50:35.058Z,82.05
2017-11-26T05:51:40.778Z,82.14
2017-11-26T05:52:46.500Z,82.17
2017-11-26T05:53:52.247Z,82.18
2017-11-26T05:54:57.972Z,82.13
2017-11-26T05:56:03.702Z,82.13
2017-11-26T05:57:09.424Z,82.17
2017-11-26T05:58:15.908Z,82.19
2017-11-26T05:59:21.662Z,82.17
2017-11-26T06:00:26.713Z,82.14
2017-11-26T06:01:32.429Z,82.10
2017-11-26T06:02:38.139Z,82.10
2017-11-26T06:03:44.957Z,82.17
2017-11-26T06:04:50.568Z,82.19
2017-11-26T06:05:56.362Z,82.26
2017-11-26T06:07:02.090Z,82.34
2017-11-26T06:08:07.803Z,82.25
2017-11-26T06:09:13.519Z,82.16
2017-11-26T06:10:20.028Z,82.11
2017-11-26T06:11:25.742Z,82.13
2017-11-26T06:12:31.479Z,82.08
2017-11-26T06:13:37.960Z,82.14
2017-11-26T06:14:43.690Z,82.18
2017-11-26T06:15:49.421Z,82.11
2017-11-26T06:16:55.133Z,82.09
2017-11-26T06:18:01.615Z,82.07
2017-11-26T06:19:07.338Z,82.09
2017-11-26T06:20:13.813Z,82.14
2017-11-26T06:21:19.236Z,82.11
2017-11-26T06:22:24.767Z,82.08
2017-11-26T06:23:31.245Z,82.04
2017-11-26T06:24:36.957Z,82.04
2017-11-26T06:25:43.455Z,82.04
2017-11-26T06:26:49.184Z,82.03
2017-11-26T06:27:54.569Z,81.91
2017-11-26T06:29:01.050Z,81.85
2017-11-26T06:30:07.539Z,81.95
2017-11-26T06:31:14.018Z,81.88
2017-11-26T06:32:19.764Z,81.89
2017-11-26T06:33:25.297Z,81.90
2017-11-26T06:34:30.684Z,82.00
2017-11-26T06:35:36.213Z,82.07
2017-11-26T06:36:42.363Z,82.08
2017-11-26T06:37:48.695Z,82.12
2017-11-26T06:38:54.414Z,82.12
2017-11-26T06:39:59.925Z,82.14
2017-11-26T06:41:05.480Z,82.15
2017-11-26T06:42:11.195Z,82.13
2017-11-26T06:43:16.932Z,82.09
2017-11-26T06:44:22.458Z,82.02
2017-11-26T06:45:28.171Z,82.04
2017-11-26T06:46:33.702Z,82.00
2017-11-26T06:47:39.478Z,81.96
2017-11-26T06:48:45.232Z,81.97
2017-11-26T06:49:50.951Z,81.96
2017-11-26T06:50:57.445Z,81.87
2017-11-26T06:52:03.153Z,81.93
2017-11-26T06:53:09.642Z,81.89
2017-11-26T06:54:15.384Z,81.86
2017-11-26T06:55:20.911Z,81.83
2017-11-26T06:56:26.626Z,81.77
2017-11-26T06:57:32.913Z,81.73
2017-11-26T06:58:38.622Z,81.76
2017-11-26T06:59:45.145Z,81.74
2017-11-26T07:00:50.860Z,81.74
2017-11-26T07:01:56.390Z,81.78
2017-11-26T07:03:02.120Z,81.80
2017-11-26T07:04:07.836Z,81.84
2017-11-26T07:05:14.339Z,81.78
2017-11-26T07:06:20.061Z,81.75
2017-11-26T07:07:25.794Z,81.74
2017-11-26T07:08:31.511Z,81.79
2017-11-26T07:09:37.989Z,81.73
2017-11-26T07:10:43.125Z,81.71
2017-11-26T07:11:48.514Z,81.62
2017-11-26T07:12:53.566Z,81.62
2017-11-26T07:13:58.644Z,81.61
2017-11-26T07:15:04.370Z,81.55
2017-11-26T07:16:10.112Z,81.57
2017-11-26T07:17:15.849Z,81.59
2017-11-26T07:18:21.563Z,81.64
2017-11-26T07:19:27.370Z,81.60
2017-11-26T07:20:33.082Z,81.58
2017-11-26T07:21:38.831Z,81.62
2017-11-26T07:22:44.204Z,81.61
2017-11-26T07:23:50.698Z,81.66
2017-11-26T07:24:56.473Z,81.73
2017-11-26T07:26:02.200Z,81.73
2017-11-26T07:27:07.937Z,81.75
2017-11-26T07:28:13.654Z,81.74
2017-11-26T07:29:19.386Z,81.68
2017-11-26T07:30:25.096Z,81.64
2017-11-26T07:31:30.812Z,81.61
2017-11-26T07:32:36.557Z,81.55
2017-11-26T07:33:42.094Z,81.55
2017-11-26T07:34:47.822Z,81.51
2017-11-26T07:35:53.548Z,81.48
2017-11-26T07:36:59.268Z,81.44
2017-11-26T07:38:05.013Z,81.43
2017-11-26T07:39:10.725Z,81.43
2017-11-26T07:40:17.211Z,81.40
2017-11-26T07:41:22.926Z,81.35
2017-11-26T07:42:29.410Z,81.29
2017-11-26T07:43:35.251Z,81.22
2017-11-26T07:44:40.963Z,81.14
2017-11-26T07:45:47.448Z,81.07
2017-11-26T07:46:53.163Z,80.99
2017-11-26T07:47:59.643Z,80.96
2017-11-26T07:49:05.381Z,80.92
2017-11-26T07:50:11.113Z,80.89
2017-11-26T07:51:17.590Z,80.83
2017-11-26T07:52:23.108Z,80.75
2017-11-26T07:53:29.613Z,80.68
2017-11-26T07:54:35.360Z,80.60
2017-11-26T07:55:41.381Z,80.52
2017-11-26T07:56:47.094Z,80.45
2017-11-26T07:57:53.604Z,80.33
2017-11-26T07:58:59.336Z,80.23
2017-11-26T08:00:05.069Z,80.14
2017-11-26T08:01:10.787Z,80.06
2017-11-26T08:02:17.174Z,79.96
2017-11-26T08:03:22.896Z,79.82
2017-11-26T08:04:28.615Z,79.72
2017-11-26T08:05:34.941Z,79.59
2017-11-26T08:06:41.421Z,79.55
2017-11-26T08:07:47.712Z,79.47
2017-11-26T08:08:53.247Z,79.38
2017-11-26T08:09:58.958Z,79.29
2017-11-26T08:11:04.715Z,79.24
2017-11-26T08:12:10.481Z,79.12
2017-11-26T08:13:16.264Z,79.09
2017-11-26T08:14:22.252Z,78.93
2017-11-26T08:15:28.014Z,78.89
2017-11-26T08:16:33.760Z,78.79
2017-11-26T08:17:39.470Z,78.66
2017-11-26T08:18:44.985Z,78.47
2017-11-26T08:19:51.475Z,78.37
2017-11-26T08:20:57.194Z,78.21
2017-11-26T08:22:03.700Z,78.04
2017-11-26T08:23:09.410Z,77.79
2017-11-26T08:24:15.118Z,77.73
2017-11-26T08:25:21.599Z,77.65
2017-11-26T08:26:27.309Z,77.37
2017-11-26T08:27:33.049Z,77.24
2017-11-26T08:28:38.757Z,77.16
2017-11-26T08:29:44.573Z,77.10
2017-11-26T08:30:50.282Z,76.91
2017-11-26T08:31:56.742Z,76.61
2017-11-26T08:33:03.255Z,76.34
2017-11-26T08:34:08.966Z,76.11
2017-11-26T08:35:14.695Z,75.99
2017-11-26T08:36:21.174Z,75.84
2017-11-26T08:37:26.878Z,75.66
2017-11-26T08:38:33.591Z,75.31
2017-11-26T08:39:39.319Z,74.94
2017-11-26T08:40:44.841Z,74.61
2017-11-26T08:41:51.195Z,74.12
2017-11-26T08:42:57.484Z,73.82
2017-11-26T08:44:03.056Z,73.10
2017-11-26T08:45:08.587Z,72.53
2017-11-26T08:46:14.093Z,71.78
2017-11-26T08:47:19.622Z,71.32
2017-11-26T08:48:25.138Z,70.77
2017-11-26T08:49:30.688Z,70.14
2017-11-26T08:50:36.215Z,69.80
2017-11-26T08:51:41.741Z,69.12
2017-11-26T08:52:46.627Z,69.03
2017-11-26T08:53:52.909Z,68.76
2017-11-26T08:54:59.222Z,68.71
2017-11-26T08:56:04.919Z,68.57
2017-11-26T08:57:10.447Z,68.00
2017-11-26T08:58:16.725Z,67.59
2017-11-26T08:59:22.240Z,67.32
2017-11-26T09:00:27.783Z,66.75
2017-11-26T09:01:33.303Z,66.46
2017-11-26T09:02:40.060Z,66.00
2017-11-26T09:03:45.289Z,65.53
2017-11-26T09:04:51.571Z,64.75
2017-11-26T09:05:57.097Z,64.31
2017-11-26T09:07:06.772Z,63.69
2017-11-26T09:08:13.348Z,63.11
2017-11-26T09:09:19.692Z,62.37
2017-11-26T09:10:25.261Z,62.06
2017-11-26T09:11:30.795Z,61.24
2017-11-26T09:12:36.878Z,60.92
2017-11-26T09:13:42.393Z,60.96
2017-11-26T09:14:48.693Z,60.49
2017-11-26T09:15:54.209Z,60.16
2017-11-26T09:16:59.954Z,60.12
2017-11-26T09:18:06.254Z,60.25
2017-11-26T09:19:12.131Z,59.94
2017-11-26T09:20:18.480Z,59.78
2017-11-26T09:21:24.025Z,60.05
2017-11-26T09:22:30.105Z,60.17
2017-11-26T09:23:35.794Z,59.94
2017-11-26T09:24:42.081Z,59.97
2017-11-26T09:25:47.882Z,59.26
2017-11-26T09:26:53.572Z,58.91
2017-11-26T09:27:59.121Z,58.79
2017-11-26T09:29:05.015Z,58.55
2017-11-26T09:30:11.325Z,58.12
2017-11-26T09:31:17.027Z,57.98
2017-11-26T09:32:22.728Z,57.74
2017-11-26T09:33:28.450Z,57.57
2017-11-26T09:34:34.356Z,57.27
2017-11-26T09:35:40.323Z,57.21
2017-11-26T09:36:46.082Z,57.41
2017-11-26T09:37:51.783Z,57.23
2017-11-26T09:38:58.071Z,57.07
2017-11-26T09:40:03.515Z,57.16
2017-11-26T09:41:09.326Z,56.83
2017-11-26T09:42:15.230Z,56.49
2017-11-26T09:43:22.152Z,56.65
2017-11-26T09:44:28.046Z,56.73
2017-11-26T09:45:34.550Z,56.78
2017-11-26T09:46:40.328Z,56.42
2017-11-26T09:47:46.097Z,56.43
2017-11-26T09:48:51.876Z,56.43
2017-11-26T09:49:57.676Z,56.09
2017-11-26T09:51:04.243Z,56.07
2017-11-26T09:52:09.828Z,56.05
2017-11-26T09:53:15.958Z,55.83
2017-11-26T09:54:21.746Z,55.81
2017-11-26T09:55:27.624Z,55.94
2017-11-26T09:56:34.113Z,55.87
2017-11-26T09:57:40.048Z,55.72
2017-11-26T09:58:46.034Z,55.84
2017-11-26T09:59:51.855Z,55.98
2017-11-26T10:00:57.714Z,56.08
2017-11-26T10:02:04.529Z,56.36
2017-11-26T10:03:11.015Z,56.44
2017-11-26T10:04:16.620Z,56.52
2017-11-26T10:05:23.198Z,56.62
2017-11-26T10:06:29.002Z,56.35
2017-11-26T10:07:34.741Z,56.51
2017-11-26T10:08:41.042Z,56.61
2017-11-26T10:09:46.783Z,56.54
2017-11-26T10:10:52.403Z,56.63
2017-11-26T10:11:58.896Z,56.56
2017-11-26T10:13:04.414Z,56.48
2017-11-26T10:14:10.114Z,56.11
2017-11-26T10:15:15.977Z,56.21
2017-11-26T10:16:21.743Z,56.50
2017-11-26T10:17:28.054Z,56.60
2017-11-26T10:18:34.569Z,56.77
2017-11-26T10:19:40.381Z,56.72
2017-11-26T10:20:46.094Z,56.75
2017-11-26T10:21:51.803Z,56.61
2017-11-26T10:22:57.534Z,56.67
2017-11-26T10:24:03.238Z,56.91
2017-11-26T10:25:09.503Z,57.03
2017-11-26T10:26:15.257Z,57.10
2017-11-26T10:27:20.990Z,57.09
2017-11-26T10:28:26.730Z,57.20
2017-11-26T10:29:32.443Z,57.11
2017-11-26T10:30:38.978Z,57.19
2017-11-26T10:31:44.670Z,57.15
2017-11-26T10:32:50.378Z,57.25
2017-11-26T10:33:55.710Z,57.52
2017-11-26T10:35:01.435Z,57.54
2017-11-26T10:36:07.944Z,57.53
2017-11-26T10:37:15.034Z,57.64
2017-11-26T10:38:21.985Z,57.85
2017-11-26T10:39:27.822Z,58.05
2017-11-26T10:40:33.353Z,58.09
2017-11-26T10:41:39.062Z,58.19
2017-11-26T10:42:44.614Z,58.18
2017-11-26T10:43:51.151Z,58.28
2017-11-26T10:44:57.761Z,58.33
2017-11-26T10:46:03.090Z,58.51
2017-11-26T10:47:08.472Z,58.66
2017-11-26T10:48:13.812Z,58.82
2017-11-26T10:49:19.067Z,58.97
2017-11-26T10:50:25.156Z,59.04
2017-11-26T10:51:30.802Z,59.32
2017-11-26T10:52:36.007Z,59.54
2017-11-26T10:53:41.324Z,59.63
2017-11-26T10:54:48.455Z,59.56
2017-11-26T10:55:55.333Z,59.69
2017-11-26T10:57:02.220Z,59.70
2017-11-26T10:58:07.794Z,60.07
2017-11-26T10:59:15.334Z,60.21
2017-11-26T11:00:22.405Z,60.54
2017-11-26T11:01:28.744Z,60.82
2017-11-26T11:02:35.266Z,60.95
2017-11-26T11:03:41.067Z,60.94
2017-11-26T11:04:46.854Z,61.16
2017-11-26T11:05:54.057Z,61.31
2017-11-26T11:07:03.597Z,61.44
2017-11-26T11:08:11.370Z,61.67
2017-11-26T11:09:18.507Z,61.73
2017-11-26T11:10:24.219Z,61.95
2017-11-26T11:11:30.806Z,62.14
2017-11-26T11:12:36.828Z,62.30
2017-11-26T11:13:42.532Z,62.44
2017-11-26T11:14:47.967Z,62.49
2017-11-26T11:15:53.907Z,62.48
2017-11-26T11:16:59.843Z,62.65
2017-11-26T11:18:05.919Z,62.71
2017-11-26T11:19:11.332Z,62.58
2017-11-26T11:20:17.345Z,62.51
2017-11-26T11:21:24.121Z,62.53
2017-11-26T11:22:30.349Z,62.42
2017-11-26T11:23:36.698Z,62.13
2017-11-26T11:24:43.182Z,61.49
2017-11-26T11:25:48.954Z,61.30
2017-11-26T11:26:54.659Z,61.31
2017-11-26T11:28:01.983Z,61.34
2017-11-26T11:29:08.034Z,61.39
2017-11-26T11:30:14.015Z,61.36
2017-11-26T11:31:20.850Z,61.38
2017-11-26T11:32:27.571Z,61.34
2017-11-26T11:33:33.179Z,61.48
2017-11-26T11:34:39.257Z,61.41
2017-11-26T11:35:45.908Z,61.49
2017-11-26T11:36:51.893Z,61.36
2017-11-26T11:37:58.637Z,61.25
2017-11-26T11:39:04.384Z,61.25
2017-11-26T11:40:11.253Z,61.13
2017-11-26T11:41:17.331Z,61.09
2017-11-26T11:42:23.444Z,61.05
2017-11-26T11:43:31.167Z,61.06
2017-11-26T11:44:37.467Z,61.03
2017-11-26T11:45:43.557Z,61.03
2017-11-26T11:46:52.132Z,60.66
2017-11-26T11:47:58.239Z,60.46
2017-11-26T11:49:05.750Z,60.61
2017-11-26T11:50:11.775Z,60.89
2017-11-26T11:51:18.020Z,61.16
2017-11-26T11:52:23.899Z,61.33
2017-11-26T11:53:30.947Z,61.45
2017-11-26T11:54:38.787Z,61.66
2017-11-26T11:55:44.817Z,61.86
2017-11-26T11:56:50.648Z,61.74
2017-11-26T11:57:57.723Z,61.74
2017-11-26T11:59:03.127Z,61.67
2017-11-26T12:00:08.903Z,61.63
2017-11-26T12:01:14.882Z,61.51
2017-11-26T12:02:20.408Z,61.27
2017-11-26T12:03:26.387Z,61.10
2017-11-26T12:04:33.198Z,61.01
2017-11-26T12:05:39.903Z,60.77
2017-11-26T12:06:45.686Z,60.56
2017-11-26T12:07:51.301Z,60.82
2017-11-26T12:08:57.930Z,60.89
2017-11-26T12:10:03.363Z,60.80
2017-11-26T12:11:10.103Z,60.57
2017-11-26T12:12:16.728Z,60.42
2017-11-26T12:13:23.244Z,60.35
2017-11-26T12:14:29.377Z,60.41
2017-11-26T12:15:34.946Z,60.39
2017-11-26T12:16:40.769Z,60.43
2017-11-26T12:17:46.688Z,60.17
2017-11-26T12:18:52.241Z,60.02
2017-11-26T12:19:57.804Z,59.91
2017-11-26T12:21:04.071Z,59.98
2017-11-26T12:22:09.884Z,59.92
2017-11-26T12:23:18.637Z,59.81
2017-11-26T12:24:24.104Z,59.89
2017-11-26T12:25:29.901Z,60.12
2017-11-26T12:26:36.512Z,59.95
2017-11-26T12:27:42.458Z,59.77
2017-11-26T12:28:48.041Z,59.93
2017-11-26T12:29:53.619Z,59.90
2017-11-26T12:30:59.886Z,59.96
2017-11-26T12:32:05.286Z,60.31
2017-11-26T12:33:12.290Z,60.34
2017-11-26T12:34:19.714Z,60.58
2017-11-26T12:35:28.675Z,60.48
2017-11-26T12:36:34.240Z,60.38
2017-11-26T12:37:39.816Z,60.50
2017-11-26T12:38:45.970Z,60.49
2017-11-26T12:39:51.890Z,60.94
2017-11-26T12:40:57.541Z,61.15
2017-11-26T12:42:04.396Z,61.33
2017-11-26T12:43:10.233Z,61.50
2017-11-26T12:44:15.945Z,61.67
2017-11-26T12:45:21.815Z,61.75
2017-11-26T12:46:27.301Z,61.81
2017-11-26T12:47:33.250Z,61.89
2017-11-26T12:48:40.690Z,61.88
2017-11-26T12:49:46.621Z,61.77
2017-11-26T12:50:52.359Z,61.85
2017-11-26T12:51:58.113Z,61.95
2017-11-26T12:53:03.537Z,62.09
2017-11-26T12:54:09.091Z,62.12
2017-11-26T12:55:14.919Z,62.05
2017-11-26T12:56:20.629Z,61.94
2017-11-26T12:57:27.424Z,61.86
2017-11-26T12:58:33.180Z,61.94
2017-11-26T12:59:38.474Z,61.93
2017-11-26T13:00:44.132Z,61.99
2017-11-26T13:01:49.526Z,62.03
2017-11-26T13:02:54.933Z,62.00
2017-11-26T13:03:59.990Z,61.98
2017-11-26T13:05:05.678Z,62.02
2017-11-26T13:06:10.846Z,62.05
2017-11-26T13:07:16.285Z,61.96
2017-11-26T13:08:21.467Z,61.97
2017-11-26T13:09:26.526Z,61.89
2017-11-26T13:10:31.914Z,61.79
2017-11-26T13:11:37.250Z,61.68
2017-11-26T13:12:42.690Z,61.74
2017-11-26T13:13:47.986Z,61.64
2017-11-26T13:14:54.059Z,61.55
2017-11-26T13:15:59.773Z,61.63
2017-11-26T13:17:05.953Z,61.73
2017-11-26T13:18:11.038Z,61.71
2017-11-26T13:19:16.504Z,61.87
2017-11-26T13:20:21.732Z,62.06
2017-11-26T13:21:27.040Z,62.25
2017-11-26T13:22:33.280Z,62.51
2017-11-26T13:23:39.980Z,62.89
2017-11-26T13:24:45.180Z,62.99
2017-11-26T13:25:50.642Z,63.07
2017-11-26T13:26:56.904Z,63.25
2017-11-26T13:28:02.341Z,63.36
2017-11-26T13:29:07.774Z,63.46
2017-11-26T13:30:13.167Z,63.52
2017-11-26T13:31:19.335Z,63.42
2017-11-26T13:32:25.431Z,63.44
2017-11-26T13:33:30.696Z,63.44
2017-11-26T13:34:36.162Z,63.33
2017-11-26T13:35:41.559Z,63.37
2017-11-26T13:36:47.140Z,63.26
2017-11-26T13:37:52.906Z,63.20
2017-11-26T13:38:58.313Z,63.19
2017-11-26T13:40:03.850Z,63.22
2017-11-26T13:41:09.397Z,63.29
2017-11-26T13:42:14.820Z,63.41
2017-11-26T13:43:20.233Z,63.44
2017-11-26T13:44:26.172Z,63.40
2017-11-26T13:45:32.189Z,63.39
2017-11-26T13:46:37.912Z,63.40
2017-11-26T13:47:43.480Z,63.35
2017-11-26T13:48:49.788Z,63.37
2017-11-26T13:49:55.010Z,63.38
2017-11-26T13:51:01.070Z,63.34
2017-11-26T13:52:06.493Z,63.35
2017-11-26T13:53:11.927Z,63.34
2017-11-26T13:54:17.079Z,63.27
2017-11-26T13:55:22.471Z,63.37
2017-11-26T13:56:27.864Z,63.39
2017-11-26T13:57:33.559Z,63.32
2017-11-26T13:58:39.292Z,63.35
2017-11-26T13:59:45.341Z,63.24
2017-11-26T14:00:50.457Z,63.21
2017-11-26T14:01:56.593Z,63.31
2017-11-26T14:03:02.750Z,63.44
2017-11-26T14:04:08.088Z,63.44
2017-11-26T14:05:13.871Z,63.36
2017-11-26T14:06:19.276Z,63.33
2017-11-26T14:07:24.565Z,63.29
2017-11-26T14:08:29.686Z,63.15
2017-11-26T14:09:34.926Z,63.08